sensor_id;sensor_type;location;lat;lon;timestamp;P1;durP1;ratioP1;P2;durP2;ratioP2
74335;SDS011;62755;-33.398;-70.572;2024-02-15T00:00:18;18.73;;;5.35;;
74335;SDS011;62755;-33.398;-70.572;2024-02-15T00:02:48;20.60;;;5.30;;
74335;SDS011;62755;-33.398;-70.572;2024-02-15T00:05:18;25.52;;;5.47;;
74335;SDS011;62755;-33.398;-70.572;2024-02-15T00:07:49;18.70;;;5.93;;
74335;SDS011;62755;-33.398;-70.572;2024-02-15T00:10:18;20.88;;;6.00;;
74335;SDS011;62755;-33.398;-70.572;2024-02-15T00:12:49;19.38;;;4.88;;
74335;SDS011;62755;-33.398;-70.572;2024-02-15T00:15:19;19.95;;;6.00;;
74335;SDS011;62755;-33.398;-70.572;2024-02-15T00:17:48;13.88;;;4.75;;
74335;SDS011;62755;-33.398;-70.572;2024-02-15T00:20:17;14.60;;;5.15;;
74335;SDS011;62755;-33.398;-70.572;2024-02-15T00:22:49;18.15;;;5.28;;
74335;SDS011;62755;-33.398;-70.572;2024-02-15T00:25:18;17.15;;;4.85;;
74335;SDS011;62755;-33.398;-70.572;2024-02-15T00:27:48;15.32;;;4.38;;
74335;SDS011;62755;-33.398;-70.572;2024-02-15T00:30:17;16.58;;;5.43;;
74335;SDS011;62755;-33.398;-70.572;2024-02-15T00:32:47;12.52;;;5.20;;
74335;SDS011;62755;-33.398;-70.572;2024-02-15T00:35:17;14.25;;;4.63;;
74335;SDS011;62755;-33.398;-70.572;2024-02-15T00:37:46;17.63;;;5.43;;
74335;SDS011;62755;-33.398;-70.572;2024-02-15T00:40:17;22.95;;;6.95;;
74335;SDS011;62755;-33.398;-70.572;2024-02-15T00:42:47;13.63;;;4.97;;
74335;SDS011;62755;-33.398;-70.572;2024-02-15T00:45:17;13.00;;;4.40;;
74335;SDS011;62755;-33.398;-70.572;2024-02-15T00:47:46;19.90;;;5.22;;
74335;SDS011;62755;-33.398;-70.572;2024-02-15T00:50:16;19.85;;;5.57;;
74335;SDS011;62755;-33.398;-70.572;2024-02-15T00:52:45;20.83;;;7.07;;
74335;SDS011;62755;-33.398;-70.572;2024-02-15T00:55:16;24.50;;;8.98;;
74335;SDS011;62755;-33.398;-70.572;2024-02-15T00:57:47;232.63;;;57.97;;
74335;SDS011;62755;-33.398;-70.572;2024-02-15T01:00:16;170.43;;;47.22;;
74335;SDS011;62755;-33.398;-70.572;2024-02-15T01:02:46;143.65;;;41.10;;
74335;SDS011;62755;-33.398;-70.572;2024-02-15T01:05:16;61.47;;;18.98;;
74335;SDS011;62755;-33.398;-70.572;2024-02-15T01:07:46;55.38;;;15.80;;
74335;SDS011;62755;-33.398;-70.572;2024-02-15T01:10:18;37.05;;;12.02;;
74335;SDS011;62755;-33.398;-70.572;2024-02-15T01:12:48;38.03;;;10.60;;
74335;SDS011;62755;-33.398;-70.572;2024-02-15T01:15:17;26.75;;;9.65;;
74335;SDS011;62755;-33.398;-70.572;2024-02-15T01:17:47;21.65;;;6.50;;
74335;SDS011;62755;-33.398;-70.572;2024-02-15T01:20:17;23.73;;;6.68;;
74335;SDS011;62755;-33.398;-70.572;2024-02-15T01:22:47;18.02;;;5.75;;
74335;SDS011;62755;-33.398;-70.572;2024-02-15T01:25:19;16.63;;;5.45;;
74335;SDS011;62755;-33.398;-70.572;2024-02-15T01:27:48;20.98;;;5.70;;
74335;SDS011;62755;-33.398;-70.572;2024-02-15T01:30:18;20.25;;;5.10;;
74335;SDS011;62755;-33.398;-70.572;2024-02-15T01:32:48;17.50;;;5.47;;
74335;SDS011;62755;-33.398;-70.572;2024-02-15T01:35:17;15.32;;;4.30;;
74335;SDS011;62755;-33.398;-70.572;2024-02-15T01:37:47;19.40;;;7.20;;
74335;SDS011;62755;-33.398;-70.572;2024-02-15T01:40:16;17.67;;;5.47;;
74335;SDS011;62755;-33.398;-70.572;2024-02-15T01:42:47;13.43;;;5.07;;
74335;SDS011;62755;-33.398;-70.572;2024-02-15T01:45:17;23.77;;;8.75;;
74335;SDS011;62755;-33.398;-70.572;2024-02-15T01:47:47;22.58;;;7.50;;
74335;SDS011;62755;-33.398;-70.572;2024-02-15T01:50:17;25.13;;;10.88;;
74335;SDS011;62755;-33.398;-70.572;2024-02-15T01:52:48;16.25;;;6.40;;
74335;SDS011;62755;-33.398;-70.572;2024-02-15T01:55:20;19.60;;;6.05;;
74335;SDS011;62755;-33.398;-70.572;2024-02-15T01:57:52;21.08;;;6.45;;
74335;SDS011;62755;-33.398;-70.572;2024-02-15T02:00:22;17.92;;;4.95;;
74335;SDS011;62755;-33.398;-70.572;2024-02-15T02:02:52;16.85;;;5.45;;
74335;SDS011;62755;-33.398;-70.572;2024-02-15T02:05:27;17.70;;;4.75;;
74335;SDS011;62755;-33.398;-70.572;2024-02-15T02:07:57;19.25;;;5.10;;
74335;SDS011;62755;-33.398;-70.572;2024-02-15T02:10:30;18.70;;;4.63;;
74335;SDS011;62755;-33.398;-70.572;2024-02-15T02:13:01;16.67;;;5.05;;
74335;SDS011;62755;-33.398;-70.572;2024-02-15T02:15:31;19.05;;;4.95;;
74335;SDS011;62755;-33.398;-70.572;2024-02-15T02:18:01;17.95;;;4.47;;
74335;SDS011;62755;-33.398;-70.572;2024-02-15T02:20:32;16.27;;;4.85;;
74335;SDS011;62755;-33.398;-70.572;2024-02-15T02:23:01;17.58;;;4.85;;
74335;SDS011;62755;-33.398;-70.572;2024-02-15T02:25:37;16.17;;;4.80;;
74335;SDS011;62755;-33.398;-70.572;2024-02-15T02:28:08;19.10;;;5.00;;
74335;SDS011;62755;-33.398;-70.572;2024-02-15T02:30:38;22.55;;;4.93;;
74335;SDS011;62755;-33.398;-70.572;2024-02-15T02:33:10;28.92;;;5.50;;
74335;SDS011;62755;-33.398;-70.572;2024-02-15T02:35:44;21.02;;;5.05;;
74335;SDS011;62755;-33.398;-70.572;2024-02-15T02:38:14;15.38;;;4.68;;
74335;SDS011;62755;-33.398;-70.572;2024-02-15T02:40:45;26.10;;;5.25;;
74335;SDS011;62755;-33.398;-70.572;2024-02-15T02:43:14;23.70;;;5.10;;
74335;SDS011;62755;-33.398;-70.572;2024-02-15T02:45:44;22.13;;;4.90;;
74335;SDS011;62755;-33.398;-70.572;2024-02-15T02:48:13;22.88;;;5.10;;
74335;SDS011;62755;-33.398;-70.572;2024-02-15T02:50:44;24.73;;;4.78;;
74335;SDS011;62755;-33.398;-70.572;2024-02-15T02:53:13;18.10;;;4.45;;
74335;SDS011;62755;-33.398;-70.572;2024-02-15T02:55:43;19.52;;;4.88;;
74335;SDS011;62755;-33.398;-70.572;2024-02-15T02:58:14;22.98;;;5.03;;
74335;SDS011;62755;-33.398;-70.572;2024-02-15T03:00:43;20.42;;;5.32;;
74335;SDS011;62755;-33.398;-70.572;2024-02-15T03:03:13;13.35;;;5.03;;
74335;SDS011;62755;-33.398;-70.572;2024-02-15T03:05:42;18.13;;;5.30;;
74335;SDS011;62755;-33.398;-70.572;2024-02-15T03:08:12;18.67;;;4.75;;
74335;SDS011;62755;-33.398;-70.572;2024-02-15T03:10:43;20.13;;;6.82;;
74335;SDS011;62755;-33.398;-70.572;2024-02-15T03:13:14;25.92;;;6.28;;
74335;SDS011;62755;-33.398;-70.572;2024-02-15T03:15:45;20.23;;;5.10;;
74335;SDS011;62755;-33.398;-70.572;2024-02-15T03:18:15;20.42;;;5.07;;
74335;SDS011;62755;-33.398;-70.572;2024-02-15T03:20:44;16.77;;;4.82;;
74335;SDS011;62755;-33.398;-70.572;2024-02-15T03:23:14;18.55;;;5.22;;
74335;SDS011;62755;-33.398;-70.572;2024-02-15T03:25:45;20.50;;;5.30;;
74335;SDS011;62755;-33.398;-70.572;2024-02-15T03:28:15;21.17;;;5.07;;
74335;SDS011;62755;-33.398;-70.572;2024-02-15T03:30:47;20.70;;;5.18;;
74335;SDS011;62755;-33.398;-70.572;2024-02-15T03:33:17;18.58;;;5.45;;
74335;SDS011;62755;-33.398;-70.572;2024-02-15T03:35:52;18.27;;;4.57;;
74335;SDS011;62755;-33.398;-70.572;2024-02-15T03:38:26;27.35;;;4.53;;
74335;SDS011;62755;-33.398;-70.572;2024-02-15T03:40:58;19.73;;;5.55;;
74335;SDS011;62755;-33.398;-70.572;2024-02-15T03:43:28;26.20;;;5.22;;
74335;SDS011;62755;-33.398;-70.572;2024-02-15T03:45:59;17.67;;;4.88;;
74335;SDS011;62755;-33.398;-70.572;2024-02-15T03:48:29;16.48;;;4.45;;
74335;SDS011;62755;-33.398;-70.572;2024-02-15T03:50:58;13.70;;;4.97;;
74335;SDS011;62755;-33.398;-70.572;2024-02-15T03:53:28;16.52;;;4.22;;
74335;SDS011;62755;-33.398;-70.572;2024-02-15T03:56:01;16.60;;;4.60;;
74335;SDS011;62755;-33.398;-70.572;2024-02-15T03:58:31;11.32;;;4.43;;
74335;SDS011;62755;-33.398;-70.572;2024-02-15T04:01:01;16.13;;;4.63;;
74335;SDS011;62755;-33.398;-70.572;2024-02-15T04:03:32;19.77;;;5.15;;
74335;SDS011;62755;-33.398;-70.572;2024-02-15T04:06:02;18.75;;;4.93;;
74335;SDS011;62755;-33.398;-70.572;2024-02-15T04:08:31;16.60;;;5.18;;
74335;SDS011;62755;-33.398;-70.572;2024-02-15T04:11:06;21.90;;;5.70;;
74335;SDS011;62755;-33.398;-70.572;2024-02-15T04:13:36;19.63;;;5.15;;
74335;SDS011;62755;-33.398;-70.572;2024-02-15T04:16:05;17.67;;;4.15;;
74335;SDS011;62755;-33.398;-70.572;2024-02-15T04:18:35;21.70;;;5.10;;
74335;SDS011;62755;-33.398;-70.572;2024-02-15T04:21:04;18.67;;;5.40;;
74335;SDS011;62755;-33.398;-70.572;2024-02-15T04:23:34;19.92;;;5.55;;
74335;SDS011;62755;-33.398;-70.572;2024-02-15T04:26:04;17.10;;;4.57;;
74335;SDS011;62755;-33.398;-70.572;2024-02-15T04:28:35;23.38;;;5.95;;
74335;SDS011;62755;-33.398;-70.572;2024-02-15T04:31:04;19.13;;;5.43;;
74335;SDS011;62755;-33.398;-70.572;2024-02-15T04:33:34;16.23;;;5.15;;
74335;SDS011;62755;-33.398;-70.572;2024-02-15T04:36:04;14.75;;;4.93;;
74335;SDS011;62755;-33.398;-70.572;2024-02-15T04:38:34;15.20;;;4.70;;
74335;SDS011;62755;-33.398;-70.572;2024-02-15T04:41:06;10.73;;;4.32;;
74335;SDS011;62755;-33.398;-70.572;2024-02-15T04:43:36;21.35;;;5.32;;
74335;SDS011;62755;-33.398;-70.572;2024-02-15T04:46:06;28.65;;;4.90;;
74335;SDS011;62755;-33.398;-70.572;2024-02-15T04:48:36;22.90;;;4.65;;
74335;SDS011;62755;-33.398;-70.572;2024-02-15T04:51:07;17.08;;;4.75;;
74335;SDS011;62755;-33.398;-70.572;2024-02-15T04:53:37;24.33;;;5.10;;
74335;SDS011;62755;-33.398;-70.572;2024-02-15T04:56:09;15.98;;;5.38;;
74335;SDS011;62755;-33.398;-70.572;2024-02-15T04:58:40;16.42;;;4.85;;
74335;SDS011;62755;-33.398;-70.572;2024-02-15T05:01:14;13.13;;;4.50;;
74335;SDS011;62755;-33.398;-70.572;2024-02-15T05:03:44;21.58;;;4.88;;
74335;SDS011;62755;-33.398;-70.572;2024-02-15T05:06:14;25.70;;;5.18;;
74335;SDS011;62755;-33.398;-70.572;2024-02-15T05:08:45;19.67;;;4.60;;
74335;SDS011;62755;-33.398;-70.572;2024-02-15T05:11:17;28.35;;;5.40;;
74335;SDS011;62755;-33.398;-70.572;2024-02-15T05:13:48;16.13;;;4.97;;
74335;SDS011;62755;-33.398;-70.572;2024-02-15T05:16:18;29.38;;;5.00;;
74335;SDS011;62755;-33.398;-70.572;2024-02-15T05:18:47;15.95;;;4.88;;
74335;SDS011;62755;-33.398;-70.572;2024-02-15T05:21:17;12.63;;;4.85;;
74335;SDS011;62755;-33.398;-70.572;2024-02-15T05:23:46;14.07;;;5.03;;
74335;SDS011;62755;-33.398;-70.572;2024-02-15T05:26:17;14.00;;;4.55;;
74335;SDS011;62755;-33.398;-70.572;2024-02-15T05:28:49;15.27;;;4.85;;
74335;SDS011;62755;-33.398;-70.572;2024-02-15T05:31:19;17.05;;;5.20;;
74335;SDS011;62755;-33.398;-70.572;2024-02-15T05:33:51;16.27;;;4.75;;
74335;SDS011;62755;-33.398;-70.572;2024-02-15T05:36:22;20.00;;;5.32;;
74335;SDS011;62755;-33.398;-70.572;2024-02-15T05:38:51;16.13;;;4.38;;
74335;SDS011;62755;-33.398;-70.572;2024-02-15T05:41:23;14.05;;;4.78;;
74335;SDS011;62755;-33.398;-70.572;2024-02-15T05:43:52;15.68;;;5.15;;
74335;SDS011;62755;-33.398;-70.572;2024-02-15T05:46:24;14.65;;;5.00;;
74335;SDS011;62755;-33.398;-70.572;2024-02-15T05:48:54;17.65;;;4.80;;
74335;SDS011;62755;-33.398;-70.572;2024-02-15T05:51:23;16.95;;;5.05;;
74335;SDS011;62755;-33.398;-70.572;2024-02-15T05:53:53;14.88;;;4.85;;
74335;SDS011;62755;-33.398;-70.572;2024-02-15T05:56:27;14.75;;;4.72;;
74335;SDS011;62755;-33.398;-70.572;2024-02-15T05:58:56;11.73;;;4.43;;
74335;SDS011;62755;-33.398;-70.572;2024-02-15T06:01:28;21.08;;;4.93;;
74335;SDS011;62755;-33.398;-70.572;2024-02-15T06:03:57;16.58;;;5.03;;
74335;SDS011;62755;-33.398;-70.572;2024-02-15T06:06:27;22.35;;;5.47;;
74335;SDS011;62755;-33.398;-70.572;2024-02-15T06:08:56;18.40;;;5.53;;
74335;SDS011;62755;-33.398;-70.572;2024-02-15T06:11:28;19.27;;;4.90;;
74335;SDS011;62755;-33.398;-70.572;2024-02-15T06:13:57;16.48;;;5.50;;
74335;SDS011;62755;-33.398;-70.572;2024-02-15T06:16:27;18.23;;;5.07;;
74335;SDS011;62755;-33.398;-70.572;2024-02-15T06:18:56;17.30;;;5.32;;
74335;SDS011;62755;-33.398;-70.572;2024-02-15T06:21:26;19.77;;;4.68;;
74335;SDS011;62755;-33.398;-70.572;2024-02-15T06:23:55;12.18;;;4.93;;
74335;SDS011;62755;-33.398;-70.572;2024-02-15T06:26:25;19.35;;;5.40;;
74335;SDS011;62755;-33.398;-70.572;2024-02-15T06:28:56;18.30;;;5.40;;
74335;SDS011;62755;-33.398;-70.572;2024-02-15T06:31:42;14.23;;;5.10;;
74335;SDS011;62755;-33.398;-70.572;2024-02-15T06:34:28;16.35;;;5.57;;
74335;SDS011;62755;-33.398;-70.572;2024-02-15T06:37:37;15.20;;;4.57;;
74335;SDS011;62755;-33.398;-70.572;2024-02-15T06:40:27;12.93;;;5.00;;
74335;SDS011;62755;-33.398;-70.572;2024-02-15T06:42:57;17.30;;;4.53;;
74335;SDS011;62755;-33.398;-70.572;2024-02-15T06:45:28;25.58;;;5.05;;
74335;SDS011;62755;-33.398;-70.572;2024-02-15T06:48:01;17.25;;;4.85;;
74335;SDS011;62755;-33.398;-70.572;2024-02-15T06:50:33;16.88;;;5.18;;
74335;SDS011;62755;-33.398;-70.572;2024-02-15T06:53:03;17.00;;;5.75;;
74335;SDS011;62755;-33.398;-70.572;2024-02-15T06:55:33;21.13;;;6.05;;
74335;SDS011;62755;-33.398;-70.572;2024-02-15T06:58:02;20.88;;;5.53;;
74335;SDS011;62755;-33.398;-70.572;2024-02-15T07:00:33;19.98;;;5.38;;
74335;SDS011;62755;-33.398;-70.572;2024-02-15T07:03:05;21.63;;;5.00;;
74335;SDS011;62755;-33.398;-70.572;2024-02-15T07:05:36;18.23;;;5.18;;
74335;SDS011;62755;-33.398;-70.572;2024-02-15T07:08:07;19.55;;;5.18;;
74335;SDS011;62755;-33.398;-70.572;2024-02-15T07:10:38;20.25;;;5.60;;
74335;SDS011;62755;-33.398;-70.572;2024-02-15T07:13:08;16.25;;;5.10;;
74335;SDS011;62755;-33.398;-70.572;2024-02-15T07:15:40;14.75;;;4.60;;
74335;SDS011;62755;-33.398;-70.572;2024-02-15T07:18:10;15.02;;;3.92;;
74335;SDS011;62755;-33.398;-70.572;2024-02-15T07:20:45;12.63;;;5.13;;
74335;SDS011;62755;-33.398;-70.572;2024-02-15T07:23:14;13.43;;;5.22;;
74335;SDS011;62755;-33.398;-70.572;2024-02-15T07:25:44;9.13;;;4.63;;
74335;SDS011;62755;-33.398;-70.572;2024-02-15T07:28:14;14.32;;;4.50;;
74335;SDS011;62755;-33.398;-70.572;2024-02-15T07:30:47;17.23;;;4.75;;
74335;SDS011;62755;-33.398;-70.572;2024-02-15T07:33:16;18.45;;;4.93;;
74335;SDS011;62755;-33.398;-70.572;2024-02-15T07:35:46;19.23;;;4.75;;
74335;SDS011;62755;-33.398;-70.572;2024-02-15T07:38:17;17.80;;;4.95;;
74335;SDS011;62755;-33.398;-70.572;2024-02-15T07:40:48;14.55;;;4.47;;
74335;SDS011;62755;-33.398;-70.572;2024-02-15T07:43:18;13.48;;;4.80;;
74335;SDS011;62755;-33.398;-70.572;2024-02-15T07:45:49;13.57;;;4.43;;
74335;SDS011;62755;-33.398;-70.572;2024-02-15T07:48:18;22.98;;;5.25;;
74335;SDS011;62755;-33.398;-70.572;2024-02-15T07:50:48;16.23;;;4.95;;
74335;SDS011;62755;-33.398;-70.572;2024-02-15T07:53:17;17.13;;;5.30;;
74335;SDS011;62755;-33.398;-70.572;2024-02-15T07:55:47;17.27;;;4.68;;
74335;SDS011;62755;-33.398;-70.572;2024-02-15T07:58:16;16.45;;;5.28;;
74335;SDS011;62755;-33.398;-70.572;2024-02-15T08:00:46;19.05;;;4.90;;
74335;SDS011;62755;-33.398;-70.572;2024-02-15T08:03:17;17.35;;;4.80;;
74335;SDS011;62755;-33.398;-70.572;2024-02-15T08:05:47;17.98;;;4.97;;
74335;SDS011;62755;-33.398;-70.572;2024-02-15T08:08:18;17.33;;;5.18;;
74335;SDS011;62755;-33.398;-70.572;2024-02-15T08:10:47;22.10;;;5.25;;
74335;SDS011;62755;-33.398;-70.572;2024-02-15T08:13:17;15.05;;;4.93;;
74335;SDS011;62755;-33.398;-70.572;2024-02-15T08:15:48;18.55;;;4.88;;
74335;SDS011;62755;-33.398;-70.572;2024-02-15T08:18:20;19.08;;;5.28;;
74335;SDS011;62755;-33.398;-70.572;2024-02-15T08:20:50;12.93;;;4.75;;
74335;SDS011;62755;-33.398;-70.572;2024-02-15T08:23:20;16.17;;;4.82;;
74335;SDS011;62755;-33.398;-70.572;2024-02-15T08:25:49;10.40;;;4.85;;
74335;SDS011;62755;-33.398;-70.572;2024-02-15T08:28:19;18.52;;;5.30;;
74335;SDS011;62755;-33.398;-70.572;2024-02-15T08:30:49;16.70;;;5.10;;
74335;SDS011;62755;-33.398;-70.572;2024-02-15T08:33:23;13.57;;;4.95;;
74335;SDS011;62755;-33.398;-70.572;2024-02-15T08:35:54;14.45;;;4.93;;
74335;SDS011;62755;-33.398;-70.572;2024-02-15T08:38:24;14.40;;;4.82;;
74335;SDS011;62755;-33.398;-70.572;2024-02-15T08:40:54;16.27;;;4.90;;
74335;SDS011;62755;-33.398;-70.572;2024-02-15T08:43:24;15.70;;;4.90;;
74335;SDS011;62755;-33.398;-70.572;2024-02-15T08:45:53;18.58;;;4.70;;
74335;SDS011;62755;-33.398;-70.572;2024-02-15T08:48:24;13.98;;;4.65;;
74335;SDS011;62755;-33.398;-70.572;2024-02-15T08:50:54;15.48;;;4.93;;
74335;SDS011;62755;-33.398;-70.572;2024-02-15T08:53:23;14.13;;;5.15;;
74335;SDS011;62755;-33.398;-70.572;2024-02-15T08:55:53;18.55;;;4.97;;
74335;SDS011;62755;-33.398;-70.572;2024-02-15T08:58:22;17.08;;;5.13;;
74335;SDS011;62755;-33.398;-70.572;2024-02-15T09:03:29;17.58;;;4.60;;
74335;SDS011;62755;-33.398;-70.572;2024-02-15T09:05:59;19.65;;;4.85;;
74335;SDS011;62755;-33.398;-70.572;2024-02-15T09:08:29;15.90;;;4.72;;
74335;SDS011;62755;-33.398;-70.572;2024-02-15T09:10:59;16.60;;;5.32;;
74335;SDS011;62755;-33.398;-70.572;2024-02-15T09:13:28;14.63;;;5.10;;
74335;SDS011;62755;-33.398;-70.572;2024-02-15T09:15:58;18.83;;;4.85;;
74335;SDS011;62755;-33.398;-70.572;2024-02-15T09:18:29;18.35;;;5.13;;
74335;SDS011;62755;-33.398;-70.572;2024-02-15T09:20:59;15.85;;;5.20;;
74335;SDS011;62755;-33.398;-70.572;2024-02-15T09:23:31;15.18;;;4.90;;
74335;SDS011;62755;-33.398;-70.572;2024-02-15T09:26:00;13.23;;;5.05;;
74335;SDS011;62755;-33.398;-70.572;2024-02-15T09:28:29;17.65;;;5.28;;
74335;SDS011;62755;-33.398;-70.572;2024-02-15T09:30:59;19.80;;;6.15;;
74335;SDS011;62755;-33.398;-70.572;2024-02-15T09:33:30;20.38;;;5.05;;
74335;SDS011;62755;-33.398;-70.572;2024-02-15T09:36:00;19.15;;;5.32;;
74335;SDS011;62755;-33.398;-70.572;2024-02-15T09:38:29;19.25;;;5.65;;
74335;SDS011;62755;-33.398;-70.572;2024-02-15T09:40:59;13.20;;;4.93;;
74335;SDS011;62755;-33.398;-70.572;2024-02-15T09:43:28;15.88;;;5.50;;
74335;SDS011;62755;-33.398;-70.572;2024-02-15T09:45:58;15.95;;;4.68;;
74335;SDS011;62755;-33.398;-70.572;2024-02-15T09:48:32;17.05;;;5.18;;
74335;SDS011;62755;-33.398;-70.572;2024-02-15T09:51:02;14.50;;;4.38;;
74335;SDS011;62755;-33.398;-70.572;2024-02-15T09:53:35;14.27;;;5.32;;
74335;SDS011;62755;-33.398;-70.572;2024-02-15T09:56:06;15.38;;;5.95;;
74335;SDS011;62755;-33.398;-70.572;2024-02-15T09:58:37;13.77;;;4.47;;
74335;SDS011;62755;-33.398;-70.572;2024-02-15T10:01:06;15.95;;;5.07;;
74335;SDS011;62755;-33.398;-70.572;2024-02-15T10:03:40;13.48;;;5.00;;
74335;SDS011;62755;-33.398;-70.572;2024-02-15T10:06:10;24.80;;;5.75;;
74335;SDS011;62755;-33.398;-70.572;2024-02-15T10:08:40;11.60;;;5.13;;
74335;SDS011;62755;-33.398;-70.572;2024-02-15T10:11:09;15.57;;;5.63;;
74335;SDS011;62755;-33.398;-70.572;2024-02-15T10:13:39;26.33;;;6.35;;
74335;SDS011;62755;-33.398;-70.572;2024-02-15T10:16:19;18.85;;;6.32;;
74335;SDS011;62755;-33.398;-70.572;2024-02-15T10:18:53;18.77;;;6.15;;
74335;SDS011;62755;-33.398;-70.572;2024-02-15T10:21:38;14.50;;;5.05;;
74335;SDS011;62755;-33.398;-70.572;2024-02-15T10:24:07;16.52;;;6.05;;
74335;SDS011;62755;-33.398;-70.572;2024-02-15T10:26:37;18.80;;;5.85;;
74335;SDS011;62755;-33.398;-70.572;2024-02-15T10:29:07;24.70;;;5.95;;
74335;SDS011;62755;-33.398;-70.572;2024-02-15T10:31:38;18.33;;;5.85;;
74335;SDS011;62755;-33.398;-70.572;2024-02-15T10:34:14;15.32;;;5.97;;
74335;SDS011;62755;-33.398;-70.572;2024-02-15T10:36:45;29.95;;;6.45;;
74335;SDS011;62755;-33.398;-70.572;2024-02-15T10:39:14;20.75;;;5.25;;
74335;SDS011;62755;-33.398;-70.572;2024-02-15T10:41:46;22.15;;;6.90;;
74335;SDS011;62755;-33.398;-70.572;2024-02-15T10:44:16;19.33;;;6.18;;
74335;SDS011;62755;-33.398;-70.572;2024-02-15T10:46:47;23.20;;;7.47;;
74335;SDS011;62755;-33.398;-70.572;2024-02-15T10:49:20;19.80;;;6.00;;
74335;SDS011;62755;-33.398;-70.572;2024-02-15T10:51:52;19.52;;;6.57;;
74335;SDS011;62755;-33.398;-70.572;2024-02-15T10:54:40;23.98;;;6.22;;
74335;SDS011;62755;-33.398;-70.572;2024-02-15T10:59:43;30.90;;;8.45;;
74335;SDS011;62755;-33.398;-70.572;2024-02-15T11:02:23;39.47;;;10.45;;
74335;SDS011;62755;-33.398;-70.572;2024-02-15T11:05:01;57.70;;;13.23;;
74335;SDS011;62755;-33.398;-70.572;2024-02-15T11:07:36;62.05;;;13.93;;
74335;SDS011;62755;-33.398;-70.572;2024-02-15T11:10:06;39.30;;;10.32;;
74335;SDS011;62755;-33.398;-70.572;2024-02-15T11:12:36;50.53;;;21.17;;
74335;SDS011;62755;-33.398;-70.572;2024-02-15T11:15:09;39.00;;;19.00;;
74335;SDS011;62755;-33.398;-70.572;2024-02-15T11:17:46;72.30;;;40.25;;
74335;SDS011;62755;-33.398;-70.572;2024-02-15T11:23:25;35.95;;;15.05;;
74335;SDS011;62755;-33.398;-70.572;2024-02-15T11:25:55;27.58;;;12.38;;
74335;SDS011;62755;-33.398;-70.572;2024-02-15T11:28:39;26.95;;;10.32;;
74335;SDS011;62755;-33.398;-70.572;2024-02-15T11:31:09;19.98;;;9.00;;
74335;SDS011;62755;-33.398;-70.572;2024-02-15T11:34:00;27.15;;;9.80;;
74335;SDS011;62755;-33.398;-70.572;2024-02-15T11:37:09;31.63;;;8.70;;
74335;SDS011;62755;-33.398;-70.572;2024-02-15T11:39:59;20.85;;;8.00;;
74335;SDS011;62755;-33.398;-70.572;2024-02-15T11:42:28;20.98;;;7.50;;
74335;SDS011;62755;-33.398;-70.572;2024-02-15T11:45:06;25.95;;;8.00;;
74335;SDS011;62755;-33.398;-70.572;2024-02-15T11:47:37;27.17;;;8.57;;
74335;SDS011;62755;-33.398;-70.572;2024-02-15T11:50:08;23.42;;;8.95;;
74335;SDS011;62755;-33.398;-70.572;2024-02-15T11:52:42;23.17;;;8.43;;
74335;SDS011;62755;-33.398;-70.572;2024-02-15T11:55:12;29.40;;;9.38;;
74335;SDS011;62755;-33.398;-70.572;2024-02-15T11:57:42;27.10;;;8.98;;
74335;SDS011;62755;-33.398;-70.572;2024-02-15T12:00:21;24.50;;;9.82;;
74335;SDS011;62755;-33.398;-70.572;2024-02-15T12:03:07;29.85;;;9.75;;
74335;SDS011;62755;-33.398;-70.572;2024-02-15T12:05:54;29.33;;;9.73;;
74335;SDS011;62755;-33.398;-70.572;2024-02-15T12:08:41;29.33;;;10.85;;
74335;SDS011;62755;-33.398;-70.572;2024-02-15T12:11:29;22.50;;;9.85;;
74335;SDS011;62755;-33.398;-70.572;2024-02-15T12:14:15;23.70;;;10.50;;
74335;SDS011;62755;-33.398;-70.572;2024-02-15T12:17:02;25.73;;;10.73;;
74335;SDS011;62755;-33.398;-70.572;2024-02-15T12:19:49;31.60;;;11.07;;
74335;SDS011;62755;-33.398;-70.572;2024-02-15T12:22:20;25.48;;;10.57;;
74335;SDS011;62755;-33.398;-70.572;2024-02-15T12:24:57;27.48;;;10.52;;
74335;SDS011;62755;-33.398;-70.572;2024-02-15T12:29:56;32.50;;;11.05;;
74335;SDS011;62755;-33.398;-70.572;2024-02-15T12:32:26;43.33;;;12.85;;
74335;SDS011;62755;-33.398;-70.572;2024-02-15T12:35:09;37.05;;;12.98;;
74335;SDS011;62755;-33.398;-70.572;2024-02-15T12:37:42;30.73;;;12.40;;
74335;SDS011;62755;-33.398;-70.572;2024-02-15T12:40:15;35.63;;;13.30;;
74335;SDS011;62755;-33.398;-70.572;2024-02-15T12:42:46;25.00;;;12.15;;
74335;SDS011;62755;-33.398;-70.572;2024-02-15T12:45:16;32.65;;;12.43;;
74335;SDS011;62755;-33.398;-70.572;2024-02-15T12:47:47;33.03;;;12.80;;
74335;SDS011;62755;-33.398;-70.572;2024-02-15T12:50:18;37.90;;;12.93;;
74335;SDS011;62755;-33.398;-70.572;2024-02-15T12:52:49;28.80;;;13.20;;
74335;SDS011;62755;-33.398;-70.572;2024-02-15T12:55:22;29.05;;;13.18;;
74335;SDS011;62755;-33.398;-70.572;2024-02-15T12:57:52;34.72;;;13.98;;
74335;SDS011;62755;-33.398;-70.572;2024-02-15T13:00:23;34.65;;;14.95;;
74335;SDS011;62755;-33.398;-70.572;2024-02-15T13:02:55;33.17;;;13.82;;
74335;SDS011;62755;-33.398;-70.572;2024-02-15T13:05:26;39.05;;;15.82;;
74335;SDS011;62755;-33.398;-70.572;2024-02-15T13:07:55;38.88;;;15.25;;
74335;SDS011;62755;-33.398;-70.572;2024-02-15T13:10:27;38.53;;;16.45;;
74335;SDS011;62755;-33.398;-70.572;2024-02-15T13:12:57;27.92;;;15.52;;
74335;SDS011;62755;-33.398;-70.572;2024-02-15T13:15:27;31.73;;;15.45;;
74335;SDS011;62755;-33.398;-70.572;2024-02-15T13:18:00;46.33;;;16.13;;
74335;SDS011;62755;-33.398;-70.572;2024-02-15T13:20:31;31.55;;;16.05;;
74335;SDS011;62755;-33.398;-70.572;2024-02-15T13:23:01;40.67;;;16.30;;
74335;SDS011;62755;-33.398;-70.572;2024-02-15T13:25:37;44.75;;;15.65;;
74335;SDS011;62755;-33.398;-70.572;2024-02-15T13:28:08;41.30;;;15.80;;
74335;SDS011;62755;-33.398;-70.572;2024-02-15T13:30:39;32.72;;;14.23;;
74335;SDS011;62755;-33.398;-70.572;2024-02-15T13:33:11;39.25;;;15.70;;
74335;SDS011;62755;-33.398;-70.572;2024-02-15T13:35:41;32.40;;;15.68;;
74335;SDS011;62755;-33.398;-70.572;2024-02-15T13:38:11;38.83;;;15.27;;
74335;SDS011;62755;-33.398;-70.572;2024-02-15T13:40:50;38.95;;;16.52;;
74335;SDS011;62755;-33.398;-70.572;2024-02-15T13:43:21;38.50;;;16.40;;
74335;SDS011;62755;-33.398;-70.572;2024-02-15T13:45:50;37.42;;;16.27;;
74335;SDS011;62755;-33.398;-70.572;2024-02-15T13:48:20;32.92;;;15.35;;
74335;SDS011;62755;-33.398;-70.572;2024-02-15T13:50:51;33.03;;;15.50;;
74335;SDS011;62755;-33.398;-70.572;2024-02-15T13:53:21;38.67;;;17.05;;
74335;SDS011;62755;-33.398;-70.572;2024-02-15T13:55:52;41.17;;;18.17;;
74335;SDS011;62755;-33.398;-70.572;2024-02-15T13:58:22;35.50;;;18.50;;
74335;SDS011;62755;-33.398;-70.572;2024-02-15T14:00:51;39.42;;;17.35;;
74335;SDS011;62755;-33.398;-70.572;2024-02-15T14:03:23;34.83;;;17.77;;
74335;SDS011;62755;-33.398;-70.572;2024-02-15T14:05:53;32.85;;;17.02;;
74335;SDS011;62755;-33.398;-70.572;2024-02-15T14:08:23;40.90;;;17.95;;
74335;SDS011;62755;-33.398;-70.572;2024-02-15T14:10:54;40.15;;;18.90;;
74335;SDS011;62755;-33.398;-70.572;2024-02-15T14:13:23;51.63;;;18.58;;
74335;SDS011;62755;-33.398;-70.572;2024-02-15T14:15:53;39.35;;;17.33;;
74335;SDS011;62755;-33.398;-70.572;2024-02-15T14:18:23;39.08;;;17.95;;
74335;SDS011;62755;-33.398;-70.572;2024-02-15T14:20:54;41.28;;;17.63;;
74335;SDS011;62755;-33.398;-70.572;2024-02-15T14:23:24;41.80;;;17.58;;
74335;SDS011;62755;-33.398;-70.572;2024-02-15T14:25:55;46.58;;;19.85;;
74335;SDS011;62755;-33.398;-70.572;2024-02-15T14:28:26;45.13;;;18.08;;